Time;durP1;ratioP1;P1;durP2;ratioP2;P2;SDS_P1;SDS_P2;PMS_P1;PMS_P2;Temp;Humidity;BMP_temperature;BMP_pressure;BME280_temperature;BME280_humidity;BME280_pressure;Samples;Min_cycle;Max_cycle;Signal;HPM_P1;HPM_P2
2022/12/05 00:00:15;;;;;;;39.47;16.75;;;2.40;99.90;;;;;;5098130;28;20181;-66
2022/12/05 00:02:40;;;;;;;35.80;16.85;;;2.50;99.90;;;;;;5102614;28;20031;-66
2022/12/05 00:05:06;;;;;;;36.97;17.15;;;2.50;99.90;;;;;;5102520;28;20046;-66
2022/12/05 00:07:32;;;;;;;31.05;16.30;;;2.50;99.90;;;;;;5102792;28;20041;-66
2022/12/05 00:09:57;;;;;;;31.77;16.02;;;2.50;99.90;;;;;;5108387;28;20039;-66
2022/12/05 00:12:23;;;;;;;34.47;16.83;;;2.60;99.90;;;;;;5108581;28;20043;-66
2022/12/05 00:14:49;;;;;;;35.65;16.55;;;2.60;99.90;;;;;;5104751;28;20496;-66
2022/12/05 00:17:14;;;;;;;34.25;17.35;;;2.60;99.90;;;;;;5104743;28;20129;-66
2022/12/05 00:19:40;;;;;;;34.50;17.23;;;2.50;99.90;;;;;;5108937;28;20100;-66
2022/12/05 00:22:05;;;;;;;34.53;17.33;;;2.50;99.90;;;;;;5107130;28;20035;-67
2022/12/05 00:24:31;;;;;;;33.65;16.48;;;2.50;99.90;;;;;;5104026;28;20426;-67
2022/12/05 00:26:56;;;;;;;32.15;16.35;;;2.50;99.90;;;;;;5103678;28;20123;-66
2022/12/05 00:29:22;;;;;;;32.17;16.25;;;2.50;99.90;;;;;;5106202;28;20038;-66
2022/12/05 00:31:48;;;;;;;31.38;16.88;;;2.50;99.90;;;;;;5107728;28;20027;-67
2022/12/05 00:34:13;;;;;;;33.47;16.90;;;2.50;99.90;;;;;;5105323;28;20028;-67
2022/12/05 00:36:39;;;;;;;31.55;17.17;;;2.50;99.90;;;;;;5105278;28;20080;-66
2022/12/05 00:39:08;;;;;;;36.38;17.02;;;2.50;99.90;;;;;;5104752;28;20145;-67
2022/12/05 00:41:34;;;;;;;35.15;15.57;;;2.50;99.90;;;;;;5107165;28;20032;-67
2022/12/05 00:44:01;;;;;;;33.10;15.75;;;2.50;99.90;;;;;;5107640;28;20369;-67
2022/12/05 00:46:28;;;;;;;35.90;17.00;;;2.50;99.90;;;;;;5104650;28;20020;-67
2022/12/05 00:48:55;;;;;;;30.60;16.25;;;2.50;99.90;;;;;;5103712;28;20111;-67
2022/12/05 00:51:25;;;;;;;31.63;15.55;;;2.50;99.90;;;;;;5107737;28;20031;-67
2022/12/05 00:53:51;;;;;;;35.42;17.05;;;2.40;99.90;;;;;;5103604;28;20036;-66
2022/12/05 00:56:22;;;;;;;30.08;14.50;;;2.40;99.90;;;;;;5103821;28;20035;-67
2022/12/05 00:58:51;;;;;;;26.73;14.00;;;2.50;99.90;;;;;;5106619;28;20074;-67
2022/12/05 01:01:20;;;;;;;32.60;15.07;;;2.50;99.90;;;;;;5087439;28;20562;-67
2022/12/05 01:03:46;;;;;;;33.67;15.47;;;2.50;99.90;;;;;;5104009;28;20069;-66
2022/12/05 01:06:14;;;;;;;30.48;15.40;;;2.50;99.90;;;;;;5103709;28;20368;-66
2022/12/05 01:08:39;;;;;;;30.08;13.88;;;2.50;99.90;;;;;;5106066;28;20028;-67
2022/12/05 01:11:06;;;;;;;34.20;15.32;;;2.50;99.90;;;;;;5106320;28;20105;-66
2022/12/05 01:13:32;;;;;;;32.58;14.88;;;2.50;99.90;;;;;;5106799;28;20027;-66
2022/12/05 01:15:58;;;;;;;28.27;15.15;;;2.40;99.90;;;;;;5105807;28;20498;-67
2022/12/05 01:18:25;;;;;;;32.88;14.80;;;2.50;99.90;;;;;;5106708;28;20084;-66
2022/12/05 01:20:52;;;;;;;32.65;15.48;;;2.50;99.90;;;;;;5104848;28;20070;-67
2022/12/05 01:23:18;;;;;;;26.92;13.95;;;2.40;99.90;;;;;;5102798;28;20023;-67
2022/12/05 01:25:47;;;;;;;33.33;14.40;;;2.40;99.90;;;;;;5096496;28;20078;-67
2022/12/05 01:28:14;;;;;;;29.35;14.60;;;2.40;99.90;;;;;;5111420;28;20062;-66
2022/12/05 01:30:47;;;;;;;30.52;15.25;;;2.40;99.90;;;;;;5093794;28;20064;-68
2022/12/05 01:33:13;;;;;;;29.92;15.20;;;2.40;99.90;;;;;;5096979;28;20028;-66
2022/12/05 01:35:40;;;;;;;28.63;14.00;;;2.40;99.90;;;;;;5100031;28;20032;-67
2022/12/05 01:38:07;;;;;;;30.77;14.65;;;2.40;99.90;;;;;;5100181;28;20092;-67
2022/12/05 01:40:37;;;;;;;30.00;14.10;;;2.40;99.90;;;;;;5095562;28;20032;-67
2022/12/05 01:43:03;;;;;;;29.27;13.77;;;2.40;99.90;;;;;;5104766;28;20392;-67
2022/12/05 01:45:40;;;;;;;29.45;13.48;;;2.40;99.90;;;;;;5112786;28;20055;-66
2022/12/05 01:48:29;;;;;;;27.08;13.15;;;2.40;99.90;;;;;;5111348;28;20099;-67
2022/12/05 01:50:54;;;;;;;27.40;13.60;;;2.40;99.90;;;;;;5112113;28;20529;-67
2022/12/05 01:53:20;;;;;;;30.13;13.57;;;2.40;99.90;;;;;;5111207;28;20039;-66
2022/12/05 01:55:48;;;;;;;25.73;13.45;;;2.40;99.90;;;;;;5100417;28;20066;-66
2022/12/05 01:58:15;;;;;;;27.88;13.35;;;2.40;99.90;;;;;;5102455;28;20023;-67
2022/12/05 02:00:41;;;;;;;26.55;13.75;;;2.40;99.90;;;;;;5105256;28;20027;-67
2022/12/05 02:03:10;;;;;;;28.85;13.80;;;2.40;99.90;;;;;;5102646;28;20466;-67
2022/12/05 02:05:37;;;;;;;29.50;13.77;;;2.40;99.90;;;;;;5107684;28;20023;-67
2022/12/05 02:08:05;;;;;;;26.00;13.25;;;2.50;99.90;;;;;;5104412;28;20274;-67
2022/12/05 02:10:37;;;;;;;28.70;13.73;;;2.40;99.90;;;;;;5107417;28;20482;-66
2022/12/05 02:13:25;;;;;;;27.38;13.30;;;2.40;99.90;;;;;;5103815;28;20063;-67
2022/12/05 02:16:19;;;;;;;23.58;11.57;;;2.50;99.90;;;;;;5102794;28;20032;-66
2022/12/05 02:18:53;;;;;;;28.75;13.10;;;2.50;99.90;;;;;;5105524;28;20024;-66
2022/12/05 02:21:34;;;;;;;26.77;13.75;;;2.40;99.90;;;;;;5099753;28;20035;-67
2022/12/05 02:24:05;;;;;;;26.13;12.45;;;2.50;99.90;;;;;;5105423;28;20047;-67
2022/12/05 02:26:46;;;;;;;29.17;13.93;;;2.40;99.90;;;;;;5105070;28;20047;-68
2022/12/05 02:29:59;;;;;;;28.00;13.48;;;2.40;99.90;;;;;;5105169;28;20088;-67
2022/12/05 02:32:54;;;;;;;27.40;12.15;;;2.40;99.90;;;;;;5032001;28;20029;-67
2022/12/05 02:35:41;;;;;;;25.88;12.77;;;2.40;99.90;;;;;;5103508;28;20052;-67
2022/12/05 02:38:34;;;;;;;27.55;12.60;;;2.50;99.90;;;;;;5110460;28;20533;-67
2022/12/05 02:41:23;;;;;;;24.80;12.50;;;2.50;99.90;;;;;;5110982;28;20415;-67
2022/12/05 02:44:07;;;;;;;24.98;12.82;;;2.40;99.90;;;;;;5092441;28;20055;-67
2022/12/05 02:46:36;;;;;;;27.52;12.82;;;2.50;99.90;;;;;;5111332;28;20032;-67
2022/12/05 02:49:07;;;;;;;29.75;13.05;;;2.50;99.90;;;;;;5109879;28;20047;-67
2022/12/05 02:51:37;;;;;;;31.55;13.82;;;2.50;99.90;;;;;;5104572;28;20353;-68
2022/12/05 02:54:09;;;;;;;32.85;15.05;;;2.60;99.90;;;;;;5102034;28;20107;-67
2022/12/05 02:56:36;;;;;;;30.05;13.55;;;2.60;99.90;;;;;;5106385;28;20032;-67
2022/12/05 02:59:02;;;;;;;36.22;15.15;;;2.50;99.90;;;;;;5103552;28;20023;-67
2022/12/05 03:01:30;;;;;;;34.95;14.35;;;2.50;99.90;;;;;;5103145;28;20035;-67
2022/12/05 03:03:58;;;;;;;31.40;14.18;;;2.60;99.90;;;;;;5105816;28;20032;-67
2022/12/05 03:06:31;;;;;;;31.88;14.25;;;2.60;99.90;;;;;;5105136;28;20024;-67
2022/12/05 03:09:01;;;;;;;35.00;15.50;;;2.60;99.90;;;;;;5105530;28;20468;-67
2022/12/05 03:11:38;;;;;;;32.97;15.43;;;2.60;99.90;;;;;;5105547;28;20031;-67
2022/12/05 03:14:10;;;;;;;31.65;13.68;;;2.60;99.90;;;;;;5101826;28;20031;-67
2022/12/05 03:16:48;;;;;;;36.63;16.23;;;2.60;99.90;;;;;;5106220;28;20954;-68
2022/12/05 03:19:24;;;;;;;28.00;13.60;;;2.60;99.90;;;;;;5105597;28;20036;-67
2022/12/05 03:22:22;;;;;;;33.28;14.88;;;2.60;99.90;;;;;;5096266;28;20040;-67
2022/12/05 03:24:48;;;;;;;29.67;13.10;;;2.50;99.90;;;;;;5079244;28;20454;-66
2022/12/05 03:27:48;;;;;;;34.13;14.43;;;2.50;99.90;;;;;;5104489;28;20052;-67
2022/12/05 03:30:15;;;;;;;;;;;2.40;99.90;;;;;;5106359;28;20028;-67
2022/12/05 03:32:52;;;;;;;30.65;14.43;;;2.40;99.90;;;;;;5100233;28;19916;-67
2022/12/05 03:35:28;;;;;;;34.15;14.32;;;2.30;99.90;;;;;;5101279;28;20123;-67
2022/12/05 03:38:23;;;;;;;38.85;16.83;;;2.40;99.90;;;;;;5104557;28;20039;-66
2022/12/05 03:41:14;;;;;;;32.42;15.85;;;2.40;99.90;;;;;;5108934;28;20015;-66
2022/12/05 03:43:58;;;;;;;33.97;15.70;;;2.40;99.90;;;;;;5107282;28;20461;-67
2022/12/05 03:46:37;;;;;;;32.50;14.63;;;2.40;99.90;;;;;;5107786;28;20393;-66
2022/12/05 03:49:06;;;;;;;37.00;15.13;;;2.50;99.90;;;;;;5105758;28;20472;-66
2022/12/05 03:51:47;;;;;;;36.28;15.57;;;2.50;99.90;;;;;;5108452;28;20489;-67
2022/12/05 03:54:31;;;;;;;31.13;14.07;;;2.50;99.90;;;;;;5107287;28;20027;-67
2022/12/05 03:57:06;;;;;;;32.45;14.52;;;2.50;99.90;;;;;;5107773;28;20035;-66
2022/12/05 04:00:07;;;;;;;29.23;12.90;;;2.60;99.90;;;;;;5107240;28;20066;-66
2022/12/05 04:02:46;;;;;;;26.88;12.90;;;2.60;99.90;;;;;;5048632;28;20374;-67
2022/12/05 04:05:31;;;;;;;33.63;14.48;;;2.70;99.90;;;;;;5105772;28;20027;-67
2022/12/05 04:08:19;;;;;;;33.88;15.10;;;2.70;99.90;;;;;;5104693;28;20035;-67
2022/12/05 04:10:47;;;;;;;29.80;13.90;;;2.70;99.90;;;;;;5088497;28;20035;-67
2022/12/05 04:13:22;;;;;;;35.08;15.07;;;2.70;99.90;;;;;;5106358;28;20024;-67
2022/12/05 04:18:46;;;;;;;31.73;14.52;;;2.70;99.90;;;;;;5105326;28;20541;-66
2022/12/05 04:26:47;;;;;;;29.13;15.15;;;2.70;99.90;;;;;;5105356;28;20089;-66
2022/12/05 04:29:30;;;;;;;29.63;13.65;;;2.60;99.90;;;;;;5107237;28;20032;-67
2022/12/05 04:32:03;;;;;;;30.83;13.98;;;2.50;99.90;;;;;;5106453;28;20121;-68
2022/12/05 04:34:31;;;;;;;29.20;14.20;;;2.50;99.90;;;;;;5108102;28;20045;-68
2022/12/05 04:37:06;;;;;;;31.23;14.45;;;2.40;99.90;;;;;;5105658;28;20361;-67
2022/12/05 04:39:40;;;;;;;35.42;16.20;;;2.40;99.90;;;;;;5108066;28;20023;-67
2022/12/05 04:42:13;;;;;;;30.90;14.25;;;2.50;99.90;;;;;;5104780;28;20114;-67
2022/12/05 04:45:03;;;;;;;31.10;14.57;;;2.50;99.90;;;;;;5106777;28;20032;-67
2022/12/05 04:47:33;;;;;;;35.67;15.57;;;2.50;99.90;;;;;;5107437;28;20023;-67
2022/12/05 04:50:00;;;;;;;30.73;13.18;;;2.50;99.90;;;;;;5106440;28;20061;-67
2022/12/05 04:52:28;;;;;;;31.33;14.23;;;2.50;99.90;;;;;;5103740;28;20187;-67
2022/12/05 04:55:04;;;;;;;30.17;13.40;;;2.50;99.90;;;;;;5108824;28;20038;-67
2022/12/05 04:57:39;;;;;;;31.10;13.70;;;2.50;99.90;;;;;;5101209;28;20249;-66
2022/12/05 05:00:05;;;;;;;33.47;14.45;;;2.50;99.90;;;;;;5106399;28;20019;-67
2022/12/05 05:02:43;;;;;;;28.80;13.75;;;2.50;99.90;;;;;;5103001;28;20032;-69
2022/12/05 05:05:11;;;;;;;28.10;14.48;;;2.50;99.90;;;;;;5101080;28;20032;-67
2022/12/05 05:07:52;;;;;;;31.05;14.27;;;2.60;99.90;;;;;;5096573;28;20033;-66
2022/12/05 05:10:20;;;;;;;;;;;2.60;99.90;;;;;;5092679;28;20118;-67
2022/12/05 05:12:46;;;;;;;32.60;13.68;;;2.60;99.90;;;;;;5097852;28;19911;-67
2022/12/05 05:15:11;;;;;;;30.60;14.90;;;2.60;99.90;;;;;;5112663;28;20031;-66
2022/12/05 05:17:37;;;;;;;28.05;14.60;;;2.50;99.90;;;;;;5107272;28;20024;-66
2022/12/05 05:22:49;;;;;;;29.88;13.85;;;2.50;99.90;;;;;;5099910;28;20035;-67
2022/12/05 05:25:14;;;;;;;34.95;15.85;;;2.60;99.90;;;;;;5094313;28;20170;-67
2022/12/05 05:27:40;;;;;;;28.85;14.68;;;2.60;99.90;;;;;;5101080;28;20131;-67
2022/12/05 05:30:06;;;;;;;31.23;15.07;;;2.60;99.90;;;;;;5105906;28;20027;-66
2022/12/05 05:32:32;;;;;;;32.95;15.60;;;2.60;99.90;;;;;;5098458;28;20028;-67
2022/12/05 05:34:58;;;;;;;30.25;14.65;;;2.60;99.90;;;;;;5094596;28;20069;-67
2022/12/05 05:37:24;;;;;;;37.10;16.48;;;2.60;99.90;;;;;;5097742;28;20081;-67
2022/12/05 05:39:49;;;;;;;31.02;15.07;;;2.60;99.90;;;;;;5084074;28;20035;-67
2022/12/05 05:42:15;;;;;;;32.53;16.38;;;2.60;99.90;;;;;;5096784;28;20027;-67
2022/12/05 05:44:40;;;;;;;31.08;14.95;;;2.70;99.90;;;;;;5092440;28;20465;-67
2022/12/05 05:47:06;;;;;;;38.55;15.77;;;2.60;99.90;;;;;;5103947;28;20035;-67
2022/12/05 05:49:31;;;;;;;33.90;16.10;;;2.60;99.90;;;;;;5108104;28;20107;-67
2022/12/05 05:51:57;;;;;;;35.45;15.35;;;2.70;99.90;;;;;;5108067;28;20027;-69
2022/12/05 05:54:22;;;;;;;31.90;15.20;;;2.70;99.90;;;;;;5111062;28;20149;-67
2022/12/05 05:56:48;;;;;;;28.70;14.95;;;2.70;99.90;;;;;;5111677;28;20026;-64
2022/12/05 05:59:14;;;;;;;33.60;15.85;;;2.70;99.90;;;;;;5090457;28;20036;-66
2022/12/05 06:01:39;;;;;;;29.80;15.15;;;2.70;99.90;;;;;;5096775;28;20037;-66
2022/12/05 06:04:06;;;;;;;31.35;14.10;;;2.80;99.90;;;;;;5102839;28;20060;-66
2022/12/05 06:06:32;;;;;;;31.10;13.77;;;2.80;99.90;;;;;;5107851;28;20099;-68
2022/12/05 06:08:58;;;;;;;31.10;15.05;;;2.80;99.90;;;;;;5090899;28;20027;-66
2022/12/05 06:11:25;;;;;;;31.90;15.02;;;2.70;99.90;;;;;;5109922;28;20032;-66
2022/12/05 06:13:51;;;;;;;31.83;15.65;;;2.80;99.90;;;;;;5098257;28;20028;-66
2022/12/05 06:16:18;;;;;;;30.92;15.13;;;2.80;99.90;;;;;;5101868;28;20658;-66
2022/12/05 06:18:44;;;;;;;32.95;14.95;;;2.80;99.90;;;;;;5102382;28;20135;-66
2022/12/05 06:21:10;;;;;;;30.15;14.18;;;2.80;99.90;;;;;;5109099;28;20127;-65
2022/12/05 06:23:37;;;;;;;28.27;13.65;;;2.80;99.90;;;;;;5111095;28;20085;-65
2022/12/05 06:26:04;;;;;;;33.08;15.27;;;2.80;99.90;;;;;;5096865;28;20047;-65
2022/12/05 06:28:30;;;;;;;28.55;13.45;;;2.80;99.90;;;;;;5109134;28;20066;-65
2022/12/05 06:30:55;;;;;;;30.20;14.18;;;2.80;99.90;;;;;;5103088;28;20445;-65
2022/12/05 06:33:21;;;;;;;33.60;15.07;;;2.70;99.90;;;;;;5102890;28;20054;-65
2022/12/05 06:35:47;;;;;;;35.08;16.85;;;2.70;99.90;;;;;;5107954;28;20035;-67
2022/12/05 06:38:13;;;;;;;35.13;16.38;;;2.80;99.90;;;;;;5096102;28;20080;-66
2022/12/05 06:40:43;;;;;;;32.65;15.15;;;2.90;99.90;;;;;;5110580;28;20059;-66
2022/12/05 06:43:08;;;;;;;;;;;2.80;99.90;;;;;;5110858;28;20531;-66
2022/12/05 06:45:37;;;;;;;30.45;15.73;;;2.90;99.90;;;;;;5106870;28;20007;-65
2022/12/05 06:48:02;;;;;;;29.25;14.38;;;2.90;99.90;;;;;;5096386;28;20032;-66
2022/12/05 06:50:28;;;;;;;30.80;15.27;;;2.80;99.90;;;;;;5104104;28;20064;-65
2022/12/05 06:52:53;;;;;;;36.95;15.93;;;2.80;99.90;;;;;;5101184;28;20333;-67
2022/12/05 06:55:19;;;;;;;33.00;14.95;;;2.80;99.90;;;;;;5099541;28;20040;-68
2022/12/05 06:57:45;;;;;;;29.25;14.30;;;2.80;99.90;;;;;;5101874;28;20207;-66
2022/12/05 07:02:55;;;;;;;27.10;13.75;;;2.90;99.90;;;;;;5095563;28;20097;-66
2022/12/05 07:05:20;;;;;;;28.40;13.48;;;2.90;99.90;;;;;;5092400;28;20020;-66
2022/12/05 07:07:46;;;;;;;23.25;12.90;;;2.90;99.90;;;;;;5092665;28;20106;-65
2022/12/05 07:10:12;;;;;;;33.85;15.10;;;2.90;99.90;;;;;;5098870;28;20027;-64
2022/12/05 07:12:37;;;;;;;30.00;14.38;;;3.00;99.90;;;;;;5096871;28;20024;-65
2022/12/05 07:15:03;;;;;;;30.63;14.77;;;2.90;99.90;;;;;;5114429;28;20038;-65
2022/12/05 07:17:29;;;;;;;34.67;15.55;;;3.00;99.90;;;;;;5110373;28;20693;-66
2022/12/05 07:19:55;;;;;;;33.47;15.38;;;3.00;99.90;;;;;;5096652;28;20028;-66
2022/12/05 07:22:21;;;;;;;32.28;15.65;;;3.10;99.90;;;;;;5096090;28;20032;-65
2022/12/05 07:24:47;;;;;;;27.10;14.30;;;3.10;99.90;;;;;;5101600;28;20334;-66
2022/12/05 07:27:14;;;;;;;22.52;12.48;;;3.20;99.90;;;;;;5105896;28;20058;-66
2022/12/05 07:29:40;;;;;;;27.80;12.70;;;3.20;99.90;;;;;;5100355;28;20405;-66
2022/12/05 07:32:05;;;;;;;27.67;14.68;;;3.20;99.90;;;;;;5098067;28;20049;-66
2022/12/05 07:34:31;;;;;;;24.02;11.60;;;3.30;99.90;;;;;;5108258;28;20023;-67
2022/12/05 07:36:57;;;;;;;23.63;12.38;;;3.30;99.90;;;;;;5113688;28;20024;-67
2022/12/05 07:39:22;;;;;;;25.13;12.23;;;3.30;99.90;;;;;;5114897;28;20035;-66
2022/12/05 07:41:48;;;;;;;22.70;11.98;;;3.40;99.90;;;;;;5100509;28;20032;-66
2022/12/05 07:44:14;;;;;;;23.70;12.48;;;3.50;99.90;;;;;;5107958;28;20034;-66
2022/12/05 07:46:39;;;;;;;20.67;11.23;;;3.50;99.90;;;;;;5097582;28;20452;-66
2022/12/05 07:49:06;;;;;;;25.50;11.63;;;3.50;99.90;;;;;;5113488;28;20019;-66
2022/12/05 07:51:32;;;;;;;28.15;13.43;;;3.60;99.90;;;;;;5101439;28;20036;-66
2022/12/05 07:53:58;;;;;;;24.77;12.07;;;3.70;99.90;;;;;;5101796;28;20333;-67
2022/12/05 07:56:24;;;;;;;22.48;11.73;;;3.70;99.90;;;;;;5110909;28;20027;-66
2022/12/05 07:58:50;;;;;;;25.08;12.23;;;3.80;99.90;;;;;;5103525;28;20456;-65
2022/12/05 08:01:24;;;;;;;27.45;13.68;;;3.80;99.90;;;;;;5099516;28;20036;-65
2022/12/05 08:03:52;;;;;;;22.42;11.98;;;3.90;99.90;;;;;;5108894;28;20031;-65
2022/12/05 08:06:21;;;;;;;23.58;12.63;;;4.00;99.90;;;;;;5113007;28;20053;-65
2022/12/05 08:08:48;;;;;;;22.45;12.48;;;4.20;99.90;;;;;;5114409;28;20016;-65
2022/12/05 08:11:18;;;;;;;28.52;13.32;;;;;;;;;;5110163;28;20034;-65
2022/12/05 08:13:44;;;;;;;29.60;13.23;;;;;;;;;;5097433;28;20071;-65
2022/12/05 08:16:11;;;;;;;25.40;12.27;;;;;;;;;;5112446;28;20257;-66
2022/12/05 08:18:37;;;;;;;21.45;11.77;;;;;;;;;;5100700;28;20412;-65
2022/12/05 08:21:11;;;;;;;23.52;13.13;;;;;;;;;;5097797;28;20028;-65
2022/12/05 08:23:37;;;;;;;22.10;11.90;;;;;;;;;;5096655;28;20036;-65
2022/12/05 08:26:11;;;;;;;22.90;11.68;;;;;;;;;;5103304;28;20048;-65
2022/12/05 08:28:37;;;;;;;20.65;11.63;;;;;;;;;;5093461;28;20051;-65
2022/12/05 08:31:04;;;;;;;18.23;11.00;;;;;;;;;;5102958;28;20119;-65
2022/12/05 08:33:30;;;;;;;16.88;9.82;;;;;;;;;;5111689;28;20032;-65
2022/12/05 08:35:56;;;;;;;16.55;9.13;;;;;;;;;;5101650;28;20074;-66
2022/12/05 08:38:22;;;;;;;13.55;8.60;;;;;;;;;;5108658;28;20469;-65
2022/12/05 08:40:48;;;;;;;18.45;10.13;;;;;;;;;;5100882;28;20024;-65
2022/12/05 08:43:14;;;;;;;15.93;9.45;;;;;;;;;;5112171;28;20092;-65
2022/12/05 08:45:40;;;;;;;15.68;9.27;;;;;;;;;;5107835;28;20393;-65
2022/12/05 08:48:06;;;;;;;18.65;10.18;;;;;;;;;;5108679;28;20020;-65
2022/12/05 08:50:32;;;;;;;15.13;8.85;;;;;;;;;;5098262;28;20015;-67
2022/12/05 08:52:58;;;;;;;14.48;8.68;;;;;;;;;;5097176;28;20043;-66
2022/12/05 08:55:24;;;;;;;14.13;8.98;;;;;;;;;;5096265;28;20031;-66
2022/12/05 08:57:50;;;;;;;18.10;10.02;;;;;;;;;;5106149;28;20042;-65
2022/12/05 09:00:16;;;;;;;15.73;9.57;;;;;;;;;;5084609;28;20016;-65
2022/12/05 09:02:42;;;;;;;17.15;10.10;;;;;;;;;;5102633;28;20212;-65
2022/12/05 09:05:08;;;;;;;16.80;10.13;;;;;;;;;;5102544;28;20074;-65
2022/12/05 09:07:34;;;;;;;18.35;10.13;;;;;;;;;;5105160;28;20063;-68
2022/12/05 09:10:00;;;;;;;17.20;10.43;;;;;;;;;;5111487;28;20100;-66
2022/12/05 09:12:26;;;;;;;15.18;9.95;;;;;;;;;;5107023;28;20115;-67
2022/12/05 09:14:52;;;;;;;17.27;11.07;;;;;;;;;;5103217;28;20032;-65
2022/12/05 09:17:18;;;;;;;16.77;9.38;;;;;;;;;;5098129;28;20070;-65
2022/12/05 09:19:44;;;;;;;17.88;10.02;;;;;;;;;;5105768;28;20464;-65
2022/12/05 09:22:10;;;;;;;16.90;10.05;;;;;;;;;;5109741;28;20028;-65
2022/12/05 09:24:36;;;;;;;17.30;9.23;;;;;;;;;;5107559;28;20030;-64
2022/12/05 09:27:02;;;;;;;15.63;9.60;;;;;;;;;;5099407;28;20745;-63
2022/12/05 09:29:30;;;;;;;13.07;8.65;;;;;;;;;;5097952;28;20051;-66
2022/12/05 09:31:56;;;;;;;14.88;8.55;;;;;;;;;;5088352;28;20080;-66
2022/12/05 09:34:24;;;;;;;12.73;8.52;;;;;;;;;;5106993;28;20020;-66
2022/12/05 09:36:51;;;;;;;15.10;8.85;;;5.20;99.90;;;;;;5098948;28;20088;-66
2022/12/05 09:39:17;;;;;;;16.35;9.88;;;5.20;99.90;;;;;;5101621;28;20021;-66
2022/12/05 09:42:04;;;;;;;13.45;8.32;;;5.30;99.90;;;;;;5107887;28;20028;-66
2022/12/05 09:45:03;;;;;;;16.35;8.13;;;5.30;99.90;;;;;;5103443;28;20024;-66
2022/12/05 09:47:31;;;;;;;11.63;7.82;;;5.40;99.90;;;;;;5098250;28;20106;-66
2022/12/05 09:50:09;;;;;;;13.02;8.20;;;5.40;99.90;;;;;;5096332;28;20034;-67
2022/12/05 09:52:38;;;;;;;17.90;8.15;;;5.40;99.90;;;;;;5102866;28;20028;-66
2022/12/05 09:55:17;;;;;;;12.48;7.43;;;5.40;99.90;;;;;;5093279;28;20046;-67
2022/12/05 09:57:59;;;;;;;10.57;7.13;;;5.50;99.90;;;;;;5103651;28;20102;-67
2022/12/05 10:00:28;;;;;;;12.77;7.20;;;5.50;99.90;;;;;;5091630;28;20039;-66
2022/12/05 10:03:18;;;;;;;12.35;7.32;;;5.50;99.90;;;;;;5101416;28;20507;-66
2022/12/05 10:06:10;;;;;;;10.90;6.78;;;5.50;99.90;;;;;;5098151;28;20042;-66
2022/12/05 10:09:08;;;;;;;12.10;7.47;;;5.50;99.90;;;;;;5092090;28;20028;-66
2022/12/05 10:12:12;;;;;;;10.23;6.53;;;5.50;99.90;;;;;;5095329;28;20041;-66
2022/12/05 10:14:50;;;;;;;12.63;7.07;;;5.50;99.90;;;;;;5091241;28;20040;-66
2022/12/05 10:17:30;;;;;;;8.35;5.88;;;5.50;99.90;;;;;;5096746;28;20023;-66
2022/12/05 10:20:01;;;;;;;11.73;7.30;;;5.50;99.90;;;;;;5096588;28;20495;-67
2022/12/05 10:22:48;;;;;;;9.88;6.40;;;5.50;99.90;;;;;;5089864;28;20042;-66
2022/12/05 10:25:18;;;;;;;8.40;6.15;;;5.60;99.90;;;;;;5099282;28;20028;-65
2022/12/05 10:28:11;;;;;;;10.32;6.10;;;5.60;99.90;;;;;;5089794;28;20091;-65
2022/12/05 10:30:40;;;;;;;9.05;6.85;;;5.60;99.90;;;;;;5096805;28;20034;-65
2022/12/05 10:33:36;;;;;;;10.77;5.97;;;5.70;99.90;;;;;;5100651;28;20076;-65
2022/12/05 10:36:08;;;;;;;8.40;6.13;;;5.80;99.90;;;;;;5093915;28;20047;-66
2022/12/05 10:38:34;;;;;;;8.88;6.15;;;6.00;99.90;;;;;;5098951;28;20107;-65
2022/12/05 10:41:07;;;;;;;9.70;5.72;;;6.10;99.90;;;;;;5099012;27;20032;-67
2022/12/05 10:43:36;;;;;;;10.15;6.13;;;6.40;99.90;;;;;;5098966;28;20032;-65
2022/12/05 10:46:01;;;;;;;15.70;9.20;;;6.60;99.90;;;;;;5096965;28;20035;-65
2022/12/05 10:48:30;;;;;;;20.95;9.65;;;7.20;99.90;;;;;;5095968;28;20036;-64
2022/12/05 10:50:57;;;;;;;16.88;8.80;;;7.30;99.90;;;;;;5098241;28;20028;-65
2022/12/05 10:53:38;;;;;;;19.98;10.25;;;7.40;99.90;;;;;;5102872;28;20036;-64
2022/12/05 10:56:49;;;;;;;13.95;9.02;;;7.50;99.90;;;;;;5099717;28;20493;-64
2022/12/05 10:59:21;;;;;;;15.10;9.48;;;7.60;99.90;;;;;;5089780;28;20129;-64
2022/12/05 11:01:56;;;;;;;14.70;9.50;;;7.60;99.90;;;;;;5092797;28;20070;-65
2022/12/05 11:04:31;;;;;;;15.93;8.75;;;7.70;99.90;;;;;;5101353;28;20019;-64
2022/12/05 11:06:58;;;;;;;16.38;8.32;;;7.70;99.90;;;;;;5095523;28;20034;-66
2022/12/05 11:09:27;;;;;;;13.88;8.32;;;7.70;99.90;;;;;;5099465;28;20043;-64
2022/12/05 11:12:08;;;;;;;14.15;8.02;;;7.60;99.90;;;;;;5095714;28;20039;-66
2022/12/05 11:14:35;;;;;;;13.50;7.95;;;7.70;99.90;;;;;;5095246;28;20035;-68
2022/12/05 11:17:02;;;;;;;17.08;8.27;;;7.60;99.90;;;;;;5089511;28;20059;-65
2022/12/05 11:19:34;;;;;;;17.75;8.02;;;7.60;99.90;;;;;;5095218;28;20058;-65
2022/12/05 11:22:01;;;;;;;12.48;7.90;;;7.50;99.90;;;;;;5091271;28;20043;-65
2022/12/05 11:24:30;;;;;;;13.98;8.00;;;7.50;99.90;;;;;;5089210;28;20023;-67
2022/12/05 11:27:16;;;;;;;12.32;6.18;;;7.40;99.90;;;;;;5090821;28;20047;-65
2022/12/05 11:29:44;;;;;;;11.15;7.30;;;7.30;99.90;;;;;;5101937;28;20027;-64
2022/12/05 11:32:32;;;;;;;15.18;8.40;;;7.30;99.90;;;;;;5098942;28;20035;-63
2022/12/05 11:35:03;;;;;;;12.07;7.13;;;7.40;99.90;;;;;;5088196;28;20085;-65
2022/12/05 11:37:37;;;;;;;15.50;8.38;;;7.50;99.90;;;;;;5089587;28;20020;-65
2022/12/05 11:40:13;;;;;;;16.80;8.95;;;7.60;99.90;;;;;;5104099;28;20443;-65
2022/12/05 11:42:46;;;;;;;12.77;8.50;;;7.70;99.90;;;;;;5095011;28;20040;-64
2022/12/05 11:45:29;;;;;;;14.77;9.40;;;7.70;99.90;;;;;;5088207;28;20028;-64
2022/12/05 11:48:28;;;;;;;8.52;4.07;;;7.90;99.90;;;;;;5091510;28;20052;-65
2022/12/05 11:51:13;;;;;;;5.47;3.43;;;8.00;99.90;;;;;;5090158;28;20024;-66
2022/12/05 11:54:13;;;;;;;5.13;3.85;;;8.10;99.90;;;;;;5085550;28;20043;-65
2022/12/05 11:56:44;;;;;;;3.38;2.85;;;;;;;;;;5096604;28;20019;-64
2022/12/05 11:59:12;;;;;;;3.35;3.00;;;8.50;99.90;;;;;;5098392;28;20023;-64
2022/12/05 12:01:55;;;;;;;3.15;2.80;;;8.60;99.90;;;;;;5095120;28;20032;-64
2022/12/05 12:04:47;;;;;;;3.58;3.00;;;8.70;99.90;;;;;;5098566;28;20039;-64
2022/12/05 12:07:22;;;;;;;4.22;3.20;;;8.60;99.90;;;;;;5092346;28;20102;-64
2022/12/05 12:09:50;;;;;;;4.70;2.90;;;8.60;99.90;;;;;;5100751;28;20035;-64
2022/12/05 12:12:36;;;;;;;3.72;2.72;;;8.60;99.90;;;;;;5093366;28;20111;-64
2022/12/05 12:15:20;;;;;;;2.90;2.40;;;8.60;99.90;;;;;;5100309;28;20036;-65
2022/12/05 12:18:10;;;;;;;4.20;2.95;;;8.60;99.90;;;;;;5107582;28;20430;-63
2022/12/05 12:20:41;;;;;;;3.67;2.83;;;8.60;99.90;;;;;;5096141;28;20019;-64
2022/12/05 12:23:25;;;;;;;9.82;5.47;;;8.50;99.90;;;;;;5108328;28;20630;-64
2022/12/05 12:25:58;;;;;;;14.65;8.82;;;8.50;99.90;;;;;;5097522;28;20051;-64
2022/12/05 12:28:46;;;;;;;14.93;9.73;;;8.30;99.90;;;;;;5093951;28;20046;-64
2022/12/05 12:31:41;;;;;;;19.17;10.77;;;8.10;99.90;;;;;;5098191;28;20103;-64
2022/12/05 12:34:37;;;;;;;16.08;10.32;;;8.00;99.90;;;;;;5077618;28;20519;-64
2022/12/05 12:37:19;;;;;;;16.85;10.25;;;7.80;99.90;;;;;;5086345;28;20384;-65
2022/12/05 12:40:10;;;;;;;16.63;9.90;;;7.70;99.90;;;;;;5095027;28;20026;-64
2022/12/05 12:42:46;;;;;;;17.77;11.55;;;7.70;99.90;;;;;;5073295;28;20066;-64
2022/12/05 12:45:38;;;;;;;18.42;11.10;;;7.70;99.90;;;;;;5092736;28;20036;-63
2022/12/05 12:48:24;;;;;;;17.38;10.77;;;7.60;99.90;;;;;;5084163;28;20043;-64
2022/12/05 12:50:53;;;;;;;17.75;10.15;;;7.60;99.90;;;;;;5102984;28;20031;-63
2022/12/05 12:53:27;;;;;;;21.05;10.77;;;7.50;99.90;;;;;;5095847;28;20153;-63
2022/12/05 12:56:12;;;;;;;14.98;9.93;;;7.50;99.90;;;;;;5094657;28;20541;-64
2022/12/05 12:58:46;;;;;;;15.75;9.95;;;7.40;99.90;;;;;;5105510;28;20031;-64
2022/12/05 13:01:15;;;;;;;16.95;10.32;;;7.50;99.90;;;;;;5096942;28;20402;-64
2022/12/05 13:03:43;;;;;;;17.20;10.88;;;7.40;99.90;;;;;;5103374;28;20050;-63
2022/12/05 13:06:30;;;;;;;17.23;11.00;;;7.50;99.90;;;;;;5096594;28;20032;-65
2022/12/05 13:09:04;;;;;;;16.67;10.57;;;7.40;99.90;;;;;;5104696;28;20019;-66
2022/12/05 13:11:44;;;;;;;19.38;11.52;;;7.30;99.90;;;;;;5092409;28;20043;-67
2022/12/05 13:14:14;;;;;;;15.18;9.55;;;7.10;99.90;;;;;;5072636;28;20609;-64
2022/12/05 13:16:43;;;;;;;15.15;10.13;;;7.10;99.90;;;;;;5101275;28;20546;-65
2022/12/05 13:19:36;;;;;;;19.92;9.90;;;7.00;99.90;;;;;;5106636;28;20028;-65
2022/12/05 13:22:04;;;;;;;16.52;10.05;;;7.00;99.90;;;;;;5097612;28;20031;-65
2022/12/05 13:24:30;;;;;;;19.20;10.23;;;7.00;99.90;;;;;;5102203;28;20507;-65
2022/12/05 13:27:05;;;;;;;16.65;10.95;;;7.00;99.90;;;;;;5100518;28;20489;-66
2022/12/05 13:29:34;;;;;;;19.55;11.25;;;7.00;99.90;;;;;;5091376;28;20102;-66